Pagrindinis puslapis
METAR-TAF:

METAR-TAF

Oro uostai :

Ojapokė, Amapa, Brazilija

platuma: 03-50N, ilguma: 051-50W, Aukštis: 39 m

Dabartinis oras

Ataskaita buvo paskelbta 3 valandos ir 32 minutes, ne 20:00 UTC
Vėjas 6 kt iš Rytų/Šiaurės Rytų
Temperatūra 30°C
Drėgmė 70%
Slėgis 1012 hPa
Matomumas 10 km arba daugiau
Išsisklaidę debesys ne aukštis 3000 ft

METAR: SBOI 052000Z 07006KT 9999 SCT030 30/24 Q1012

Laikas: 20:32 (23:32 UTC)


TAF: trūkstamas

Orai ataskaitas ir orų prognozės (METAR, TAF).

turimą stotys yra geltonos ir raudonos taškus žemėlapyje.

Perkelti pele per norėdami pamatyti stoties vardą.

Tada spustelėkite, norėdami matyti oro stebėjimo ir prognozės.

Norėdami pakeisti žemėlapį: spustelėkite ant žalios mygtukų su juodo kryžiaus žemyn,; žalią mygtuką su brūkšneliu, jei norite nutolinti; arba žalių rodyklių gretimoms žemėlapius.


METAR-TAF: